Tibet A319 at Chongqing on May 12th 2022, runway excursion on takeoff, aircraft on fire

Last Update: May 19, 2022 / 21:59:50 GMT/Zulu time

Bookmark this article
Incident Facts

Date of incident
May 12, 2022

Classification
Accident

Flight number
TV-9833

Destination
Nyingchi, China

Aircraft Registration
B-6425

Aircraft Type
Airbus A319

ICAO Type Designator
A319

Airport ICAO Code
ZUCK

A Tibet Airlines Airbus A319-100, registration B-6425 performing flight TV-9833 from Chongqing to Nyingchi (China) with 113 passengers and 9 crew, was accelerating for takeoff from Chongqing's runway 03 at about 08:04L (00:04Z) when the aircraft went left off the runway, crossed the paralell taxiway, crossed another taxiway connecting runway and the two parallel taxiways, left both engines (CFM56) and the landing gear behind and came to a stop off the runway on soft ground between the two parallel taxiways. A fire broke out at the left forward side of the aircraft, the aircraft was evacuated via slides. 36 people received minor injuries in the accident, the aircraft sustained damage beyond repair.

Tibet Airlines reported 113 passengers and 9 crew were on board, the aircraft was taking off when the crew noticed some anomaly. The aircraft veered off the runway, some occupants received minor injuries.

China's Civil Aviation Authority confirmed 36 people received minor injuries in the accident.

On May 19th 2022 the CAAC (Civil Aviation Authority China) reported the gears collapsed, the engines separated, part of the fuselage suffered from fire after rejected takeoff. The occurrence was rated an accident and is being investigated.

Metars:
ZUCK 120200Z 11003MPS 030V170 9999 FEW030 24/18 Q1010 NOSIG=
ZUCK 120100Z 09003MPS CAVOK 23/18 Q1010 NOSIG=
ZUCK 120000Z 08002MPS CAVOK 22/20 Q1010 NOSIG=
ZUCK 112300Z VRB01MPS CAVOK 20/20 Q1010 NOSIG=
ZUCK 112200Z 36002MPS CAVOK 19/19 Q1009 NOSIG=
ZUCK 112100Z VRB01MPS CAVOK 19/19 Q1009 NOSIG=
ZUCK 112000Z VRB01MPS CAVOK 20/20 Q1010 NOSIG=
Incident Facts

Date of incident
May 12, 2022

Classification
Accident

Flight number
TV-9833

Destination
Nyingchi, China

Aircraft Registration
B-6425

Aircraft Type
Airbus A319

ICAO Type Designator
A319

Airport ICAO Code
ZUCK

Videos

This article is published under license from Avherald.com. © of text by Avherald.com.
Article source

You can read 4 more free articles without a subscription.

Subscribe now and continue reading without any limits!

Are you a subscriber?
Login
Subscribe

Read unlimited articles and receive our daily update briefing. Gain better insights into what is happening in commercial aviation safety.

Free newsletter

Want to know more and stay ahead? Get our free weekly newsletter and join 5152 existing subscribers.

By subscribing, you accept our terms and conditions and confirm that you've read our privacy policy.

Send tip

Support AeroInside by sending a small tip amount.

Related articles

Newest articles

Subscribe today

Are you researching aviation incidents? Get access to AeroInside Insights, unlimited read access and receive the daily newsletter.

Pick your plan and subscribe

Partner

Blockaviation logo

A new way to document and demonstrate airworthiness compliance and aircraft value. Find out more.

Virtual Speech logo

ELITE Simulation Solutions is a leading global provider of Flight Simulation Training Devices, IFR training software as well as flight controls and related services. Find out more.

Get updates

Never miss an article from AeroInside. Subscribe to our free weekly newsletter and join 5152 existing subscribers.

By subscribing, you accept our terms and conditions and that you've read our privacy policy.

AeroInside Blog
Popular aircraft
Airbus A320
Boeing 737-800
Boeing 737-800 MAX
Popular airlines
American Airlines
United
Delta
Air Canada
Lufthansa
British Airways